createdAt,value
2018-12-20T00:00:11.725Z,99610.72
2018-12-20T00:02:41.727Z,99605.82
2018-12-20T00:05:11.605Z,99602.80
2018-12-20T00:07:41.571Z,99596.77
2018-12-20T00:10:11.511Z,99595.30
2018-12-20T00:12:41.400Z,99602.41
2018-12-20T00:15:11.399Z,99603.28
2018-12-20T00:17:45.298Z,99606.80
2018-12-20T00:20:15.196Z,99610.74
2018-12-20T00:22:45.337Z,99623.12
2018-12-20T00:25:15.376Z,99630.67
2018-12-20T00:27:45.457Z,99633.81
2018-12-20T00:30:15.461Z,99644.38
2018-12-20T00:32:46.157Z,99648.42
2018-12-20T00:35:16.159Z,99641.66
2018-12-20T00:37:47.591Z,99640.84
2018-12-20T00:40:17.693Z,99638.58
2018-12-20T00:42:47.661Z,99638.52
2018-12-20T00:45:17.759Z,99639.89
2018-12-20T00:47:47.569Z,99633.39
2018-12-20T00:50:17.494Z,99634.26
2018-12-20T00:52:47.463Z,99631.55
2018-12-20T00:55:17.388Z,99626.28
2018-12-20T00:57:47.711Z,99633.67
2018-12-20T01:00:19.555Z,99630.79
2018-12-20T01:02:55.192Z,99633.77
2018-12-20T01:05:21.443Z,99636.25
2018-12-20T01:07:51.567Z,99630.48
2018-12-20T01:10:21.662Z,99630.02
2018-12-20T01:12:51.573Z,99626.05
2018-12-20T01:15:21.468Z,99630.85
2018-12-20T01:17:51.602Z,99616.65
2018-12-20T01:20:21.592Z,99614.54
2018-12-20T01:22:51.482Z,99624.58
2018-12-20T01:25:21.503Z,99625.80
2018-12-20T01:27:51.518Z,99634.05
2018-12-20T01:30:21.323Z,99637.06
2018-12-20T01:32:51.216Z,99630.58
2018-12-20T01:35:21.195Z,99603.72
2018-12-20T01:37:51.220Z,99594.95
2018-12-20T01:40:21.354Z,99584.91
2018-12-20T01:42:51.399Z,99582.66
2018-12-20T01:45:21.408Z,99608.11
2018-12-20T01:47:51.482Z,99618.73
2018-12-20T01:50:21.473Z,99612.15
2018-12-20T01:52:51.520Z,99620.05
2018-12-20T01:55:21.635Z,99616.09
2018-12-20T01:57:51.702Z,99617.41
2018-12-20T02:00:21.951Z,99621.36
2018-12-20T02:02:52.055Z,99616.09
2018-12-20T02:05:21.884Z,99617.91
2018-12-20T02:07:52.132Z,99616.09
2018-12-20T02:10:22.341Z,99614.39
2018-12-20T02:12:52.363Z,99615.20
2018-12-20T02:15:22.329Z,99610.83
2018-12-20T02:17:52.445Z,99610.02
2018-12-20T02:20:22.616Z,99607.83
2018-12-20T02:22:52.588Z,99609.12
2018-12-20T02:25:22.692Z,99603.77
2018-12-20T02:27:52.860Z,99605.23
2018-12-20T02:30:22.835Z,99601.27
2018-12-20T02:32:53.022Z,99603.98
2018-12-20T02:35:23.134Z,99604.35
2018-12-20T02:37:53.158Z,99609.17
2018-12-20T02:40:23.120Z,99611.33
2018-12-20T02:42:53.165Z,99614.05
2018-12-20T02:45:23.210Z,99610.14
2018-12-20T02:47:53.280Z,99608.78
2018-12-20T02:50:23.283Z,99603.93
2018-12-20T02:52:53.333Z,99609.22
2018-12-20T02:55:23.383Z,99604.45
2018-12-20T02:57:53.399Z,99604.92
2018-12-20T03:00:23.625Z,99599.80
2018-12-20T03:02:53.705Z,99593.30
2018-12-20T03:05:23.798Z,99584.06
2018-12-20T03:07:53.982Z,99586.16
2018-12-20T03:10:23.938Z,99588.73
2018-12-20T03:12:54.031Z,99581.78
2018-12-20T03:15:24.021Z,99574.28
2018-12-20T03:17:54.145Z,99576.45
2018-12-20T03:20:24.347Z,99573.86
2018-12-20T03:22:54.590Z,99571.18
2018-12-20T03:25:24.936Z,99561.59
2018-12-20T03:27:54.936Z,99567.37
2018-12-20T03:30:25.164Z,99572.96
2018-12-20T03:32:55.537Z,99569.52
2018-12-20T03:35:25.582Z,99564.64
2018-12-20T03:37:55.481Z,99561.59
2018-12-20T03:40:25.403Z,99568.57
2018-12-20T03:42:55.484Z,99570.83
2018-12-20T03:45:29.082Z,99565.17
2018-12-20T03:47:58.138Z,99565.56
2018-12-20T03:50:28.197Z,99563.73
2018-12-20T03:52:58.203Z,99567.72
2018-12-20T03:55:28.260Z,99578.73
2018-12-20T03:57:58.491Z,99575.62
2018-12-20T04:00:28.447Z,99577.44
2018-12-20T04:02:58.733Z,99569.44
2018-12-20T04:05:28.719Z,99570.44
2018-12-20T04:07:58.902Z,99572.13
2018-12-20T04:10:29.055Z,99576.49
2018-12-20T04:12:59.064Z,99582.28
2018-12-20T04:15:37.598Z,99580.91
2018-12-20T04:18:00.950Z,99589.27
2018-12-20T04:20:30.907Z,99594.16
2018-12-20T04:23:00.855Z,99586.62
2018-12-20T04:25:30.824Z,99579.22
2018-12-20T04:28:00.803Z,99584.94
2018-12-20T04:30:30.828Z,99591.89
2018-12-20T04:33:01.000Z,99589.31
2018-12-20T04:35:31.062Z,99587.07
2018-12-20T04:38:01.104Z,99584.06
2018-12-20T04:40:31.040Z,99580.86
2018-12-20T04:43:01.175Z,99577.81
2018-12-20T04:45:31.112Z,99573.53
2018-12-20T04:48:01.318Z,99567.80
2018-12-20T04:50:31.259Z,99565.98
2018-12-20T04:53:01.537Z,99566.86
2018-12-20T04:55:31.586Z,99566.33
2018-12-20T04:58:02.811Z,99559.77
2018-12-20T05:00:33.100Z,99563.75
2018-12-20T05:03:03.214Z,99566.36
2018-12-20T05:05:33.435Z,99575.33
2018-12-20T05:08:03.584Z,99567.84
2018-12-20T05:10:33.858Z,99567.67
2018-12-20T05:13:03.883Z,99563.28
2018-12-20T05:15:36.721Z,99554.16
2018-12-20T05:18:06.757Z,99551.41
2018-12-20T05:20:36.888Z,99549.15
2018-12-20T05:25:47.481Z,99549.41
2018-12-20T05:28:17.826Z,99543.67
2018-12-20T05:30:47.975Z,99545.06
2018-12-20T05:33:17.932Z,99552.89
2018-12-20T05:35:48.088Z,99556.46
2018-12-20T05:38:18.114Z,99563.12
2018-12-20T05:40:48.212Z,99569.19
2018-12-20T05:43:18.295Z,99563.42
2018-12-20T05:45:48.283Z,99559.90
2018-12-20T05:48:18.596Z,99559.37
2018-12-20T05:50:48.582Z,99558.50
2018-12-20T05:53:18.470Z,99555.88
2018-12-20T05:55:48.488Z,99559.36
2018-12-20T05:58:18.481Z,99562.02
2018-12-20T06:00:48.455Z,99558.66
2018-12-20T06:03:18.392Z,99557.29
2018-12-20T06:05:48.531Z,99544.28
2018-12-20T06:08:18.458Z,99546.21
2018-12-20T06:10:48.472Z,99537.04
2018-12-20T06:13:18.541Z,99547.51
2018-12-20T06:15:48.548Z,99536.08
2018-12-20T06:18:18.512Z,99542.73
2018-12-20T06:20:48.500Z,99541.78
2018-12-20T06:23:19.115Z,99543.55
2018-12-20T06:25:49.224Z,99550.53
2018-12-20T06:28:19.361Z,99543.11
2018-12-20T06:30:49.485Z,99548.28
2018-12-20T06:33:19.566Z,99535.63
2018-12-20T06:35:49.671Z,99542.27
2018-12-20T06:38:19.823Z,99541.30
2018-12-20T06:40:49.877Z,99545.22
2018-12-20T06:43:19.925Z,99542.61
2018-12-20T06:45:50.252Z,99542.09
2018-12-20T06:48:20.304Z,99546.95
2018-12-20T06:50:50.318Z,99546.94
2018-12-20T06:53:20.423Z,99542.56
2018-12-20T06:55:50.453Z,99547.83
2018-12-20T06:58:20.652Z,99554.86
2018-12-20T07:00:50.781Z,99546.04
2018-12-20T07:03:20.770Z,99548.63
2018-12-20T07:05:50.812Z,99556.57
2018-12-20T07:08:20.775Z,99555.30
2018-12-20T07:10:50.984Z,99551.30
2018-12-20T07:13:20.945Z,99546.44
2018-12-20T07:15:51.284Z,99554.31
2018-12-20T07:18:21.573Z,99541.52
2018-12-20T07:20:51.605Z,99544.20
2018-12-20T07:23:21.641Z,99549.52
2018-12-20T07:25:51.651Z,99551.25
2018-12-20T07:28:21.586Z,99540.68
2018-12-20T07:30:51.776Z,99544.57
2018-12-20T07:33:21.910Z,99547.70
2018-12-20T07:35:52.016Z,99547.66
2018-12-20T07:38:22.015Z,99548.09
2018-12-20T07:40:52.037Z,99554.28
2018-12-20T07:43:22.256Z,99551.13
2018-12-20T07:45:52.296Z,99551.66
2018-12-20T07:48:22.426Z,99551.23
2018-12-20T07:50:52.544Z,99556.50
2018-12-20T07:53:22.555Z,99546.78
2018-12-20T07:55:52.559Z,99547.63
2018-12-20T07:58:22.783Z,99549.02
2018-12-20T08:00:52.792Z,99545.49
2018-12-20T08:03:22.854Z,99547.28
2018-12-20T08:05:52.849Z,99544.66
2018-12-20T08:08:23.140Z,99549.37
2018-12-20T08:10:53.178Z,99557.23
2018-12-20T08:13:23.245Z,99558.10
2018-12-20T08:15:53.203Z,99548.49
2018-12-20T08:18:23.450Z,99542.83
2018-12-20T08:20:53.777Z,99549.89
2018-12-20T08:23:23.746Z,99548.58
2018-12-20T08:25:53.887Z,99555.19
2018-12-20T08:28:23.981Z,99552.02
2018-12-20T08:30:54.120Z,99552.92
2018-12-20T08:33:24.345Z,99559.00
2018-12-20T08:35:54.642Z,99562.62
2018-12-20T08:38:24.662Z,99565.73
2018-12-20T08:40:54.568Z,99563.92
2018-12-20T08:43:24.540Z,99563.50
2018-12-20T08:45:54.524Z,99573.98
2018-12-20T08:48:24.507Z,99577.47
2018-12-20T08:50:54.467Z,99572.21
2018-12-20T08:53:24.658Z,99567.40
2018-12-20T08:55:54.586Z,99570.47
2018-12-20T08:58:24.725Z,99559.00
2018-12-20T09:00:54.625Z,99549.37
2018-12-20T09:03:24.915Z,99557.34
2018-12-20T09:05:54.818Z,99557.81
2018-12-20T09:08:25.513Z,99551.23
2018-12-20T09:10:55.441Z,99553.02
2018-12-20T09:13:25.444Z,99551.72
2018-12-20T09:15:55.409Z,99551.80
2018-12-20T09:18:25.344Z,99543.02
2018-12-20T09:20:55.750Z,99547.36
2018-12-20T09:23:26.092Z,99547.88
2018-12-20T09:25:56.025Z,99551.35
2018-12-20T09:28:26.083Z,99544.39
2018-12-20T09:30:56.098Z,99546.17
2018-12-20T09:33:26.023Z,99548.32
2018-12-20T09:35:56.071Z,99543.53
2018-12-20T09:38:26.042Z,99538.62
2018-12-20T09:40:56.006Z,99527.61
2018-12-20T09:43:27.655Z,99526.77
2018-12-20T09:45:57.632Z,99533.82
2018-12-20T09:48:27.574Z,99530.66
2018-12-20T09:50:57.583Z,99531.14
2018-12-20T09:53:27.463Z,99539.06
2018-12-20T09:55:57.482Z,99542.14
2018-12-20T09:58:27.474Z,99532.48
2018-12-20T10:00:57.737Z,99541.25
2018-12-20T10:03:27.664Z,99538.19
2018-12-20T10:05:57.714Z,99529.47
2018-12-20T10:08:27.684Z,99533.00
2018-12-20T10:10:58.188Z,99537.39
2018-12-20T10:13:28.155Z,99530.41
2018-12-20T10:15:58.090Z,99527.78
2018-12-20T10:18:28.096Z,99522.54
2018-12-20T10:20:58.033Z,99522.58
2018-12-20T10:23:28.040Z,99520.80
2018-12-20T10:25:58.007Z,99519.91
2018-12-20T10:28:28.006Z,99513.30
2018-12-20T10:30:57.964Z,99504.11
2018-12-20T10:33:27.954Z,99502.30
2018-12-20T10:35:57.924Z,99504.92
2018-12-20T10:38:27.876Z,99500.14
2018-12-20T10:40:57.864Z,99501.03
2018-12-20T10:43:27.960Z,99497.03
2018-12-20T10:45:58.089Z,99501.50
2018-12-20T10:48:28.064Z,99499.76
2018-12-20T10:50:58.055Z,99498.02
2018-12-20T10:53:27.999Z,99496.75
2018-12-20T10:55:58.004Z,99501.12
2018-12-20T10:58:28.004Z,99501.59
2018-12-20T11:01:01.904Z,99500.72
2018-12-20T11:03:35.890Z,99495.50
2018-12-20T11:06:10.504Z,99500.78
2018-12-20T11:08:44.524Z,99497.69
2018-12-20T11:11:18.415Z,99502.95
2018-12-20T11:13:48.415Z,99499.90
2018-12-20T11:16:18.515Z,99497.27
2018-12-20T11:18:48.466Z,99486.61
2018-12-20T11:21:18.472Z,99491.88
2018-12-20T11:23:48.595Z,99489.65
2018-12-20T11:26:18.554Z,99483.54
2018-12-20T11:28:48.526Z,99480.47
2018-12-20T11:31:18.515Z,99479.99
2018-12-20T11:33:48.575Z,99477.38
2018-12-20T11:36:18.555Z,99477.38
2018-12-20T11:38:48.605Z,99479.61
2018-12-20T11:41:18.606Z,99474.33
2018-12-20T11:43:48.585Z,99470.02
2018-12-20T11:46:18.565Z,99466.92
2018-12-20T11:48:48.535Z,99464.73
2018-12-20T11:51:18.573Z,99460.73
2018-12-20T11:53:48.554Z,99463.73
2018-12-20T11:56:18.522Z,99460.73
2018-12-20T11:58:48.574Z,99461.64
2018-12-20T12:01:18.495Z,99466.91
2018-12-20T12:03:57.216Z,99472.58
2018-12-20T12:06:20.781Z,99470.02
2018-12-20T12:08:50.823Z,99460.33
2018-12-20T12:11:20.700Z,99456.83
2018-12-20T12:13:50.665Z,99461.18
2018-12-20T12:16:20.587Z,99453.74
2018-12-20T12:18:50.776Z,99456.45
2018-12-20T12:21:20.695Z,99463.45
2018-12-20T12:23:50.715Z,99466.91
2018-12-20T12:26:20.610Z,99464.75
2018-12-20T12:28:50.631Z,99461.64
2018-12-20T12:31:20.586Z,99466.89
2018-12-20T12:33:50.497Z,99464.75
2018-12-20T12:36:20.473Z,99456.83
2018-12-20T12:38:50.567Z,99461.20
2018-12-20T12:41:20.508Z,99455.44
2018-12-20T12:43:50.994Z,99457.21
2018-12-20T12:46:21.277Z,99454.62
2018-12-20T12:48:51.140Z,99449.80
2018-12-20T12:51:21.178Z,99454.22
2018-12-20T12:53:51.094Z,99456.39
2018-12-20T12:56:21.138Z,99466.47
2018-12-20T12:58:51.099Z,99465.55
2018-12-20T13:01:21.139Z,99475.19
2018-12-20T13:03:51.083Z,99466.89
2018-12-20T13:06:21.090Z,99465.95
2018-12-20T13:08:51.292Z,99474.72
2018-12-20T13:11:21.375Z,99464.63
2018-12-20T13:13:51.431Z,99467.31
2018-12-20T13:16:21.372Z,99465.95
2018-12-20T13:18:51.304Z,99466.37
2018-12-20T13:21:21.306Z,99468.14
2018-12-20T13:23:51.342Z,99468.60
2018-12-20T13:26:21.399Z,99468.16
2018-12-20T13:28:51.366Z,99471.69
2018-12-20T13:31:21.424Z,99475.16
2018-12-20T13:33:51.437Z,99469.45
2018-12-20T13:36:21.374Z,99472.94
2018-12-20T13:38:51.455Z,99469.45
2018-12-20T13:41:21.398Z,99473.81
2018-12-20T13:43:51.376Z,99473.39
2018-12-20T13:46:21.333Z,99476.88
2018-12-20T13:48:51.368Z,99478.22
2018-12-20T13:51:21.284Z,99483.02
2018-12-20T13:53:51.306Z,99482.52
2018-12-20T13:56:21.324Z,99481.58
2018-12-20T13:58:51.283Z,99477.75
2018-12-20T14:01:21.235Z,99474.64
2018-12-20T14:03:51.163Z,99478.58
2018-12-20T14:06:21.184Z,99483.86
2018-12-20T14:08:51.174Z,99486.93
2018-12-20T14:11:21.305Z,99478.16
2018-12-20T14:13:51.365Z,99484.73
2018-12-20T14:16:21.288Z,99489.09
2018-12-20T14:18:51.203Z,99485.53
2018-12-20T14:21:21.168Z,99484.38
2018-12-20T14:23:51.140Z,99481.75
2018-12-20T14:26:21.167Z,99480.34
2018-12-20T14:28:51.097Z,99479.01
2018-12-20T14:31:20.989Z,99480.34
2018-12-20T14:33:50.992Z,99488.13
2018-12-20T14:36:21.001Z,99489.06
2018-12-20T14:38:50.940Z,99491.63
2018-12-20T14:41:20.930Z,99496.91
2018-12-20T14:43:50.929Z,99493.41
2018-12-20T14:46:20.889Z,99493.91
2018-12-20T14:48:50.982Z,99495.19
2018-12-20T14:51:21.023Z,99494.28
2018-12-20T14:53:51.008Z,99495.60
2018-12-20T14:56:20.953Z,99496.02
2018-12-20T14:58:50.929Z,99497.36
2018-12-20T15:01:21.253Z,99501.77
2018-12-20T15:03:51.171Z,99503.92
2018-12-20T15:06:21.086Z,99509.14
2018-12-20T15:08:51.210Z,99515.24
2018-12-20T15:11:21.154Z,99513.05
2018-12-20T15:13:51.648Z,99513.91
2018-12-20T15:16:21.787Z,99517.85
2018-12-20T15:18:51.806Z,99518.73
2018-12-20T15:21:21.994Z,99523.62
2018-12-20T15:23:51.956Z,99524.45
2018-12-20T15:26:23.476Z,99523.14
2018-12-20T15:28:53.465Z,99524.91
2018-12-20T15:31:23.615Z,99519.67
2018-12-20T15:33:53.615Z,99526.20
2018-12-20T15:36:23.631Z,99523.05
2018-12-20T15:38:53.579Z,99528.75
2018-12-20T15:41:23.556Z,99526.97
2018-12-20T15:43:53.639Z,99528.75
2018-12-20T15:46:23.590Z,99525.35
2018-12-20T15:48:57.498Z,99533.67
2018-12-20T15:51:27.509Z,99530.98
2018-12-20T15:53:57.884Z,99530.55
2018-12-20T15:56:27.985Z,99531.86
2018-12-20T15:58:58.038Z,99533.67
2018-12-20T16:01:28.182Z,99529.67
2018-12-20T16:03:58.201Z,99526.64
2018-12-20T16:06:28.107Z,99526.20
2018-12-20T16:08:58.056Z,99526.59
2018-12-20T16:11:28.825Z,99530.16
2018-12-20T16:13:58.845Z,99530.17
2018-12-20T16:16:28.886Z,99535.46
2018-12-20T16:19:04.924Z,99533.67
2018-12-20T16:21:30.788Z,99534.09
2018-12-20T16:24:00.861Z,99538.08
2018-12-20T16:26:30.916Z,99540.33
2018-12-20T16:29:00.935Z,99535.84
2018-12-20T16:31:31.123Z,99538.14
2018-12-20T16:34:01.070Z,99533.73
2018-12-20T16:36:31.054Z,99531.94
2018-12-20T16:39:01.020Z,99529.23
2018-12-20T16:41:31.090Z,99531.04
2018-12-20T16:44:01.164Z,99533.27
2018-12-20T16:46:31.053Z,99524.43
2018-12-20T16:49:01.171Z,99532.78
2018-12-20T16:51:31.151Z,99528.86
2018-12-20T16:54:01.095Z,99519.19
2018-12-20T16:56:30.988Z,99527.55
2018-12-20T16:59:00.991Z,99524.76
2018-12-20T17:01:31.311Z,99526.49
2018-12-20T17:04:01.246Z,99527.02
2018-12-20T17:06:31.264Z,99526.52
2018-12-20T17:09:01.362Z,99517.80
2018-12-20T17:11:31.378Z,99519.63
2018-12-20T17:14:01.368Z,99517.80
2018-12-20T17:16:31.359Z,99521.73
2018-12-20T17:19:01.313Z,99510.72
2018-12-20T17:21:31.408Z,99508.57
2018-12-20T17:24:01.305Z,99511.64
2018-12-20T17:26:31.368Z,99505.89
2018-12-20T17:29:01.335Z,99510.28
2018-12-20T17:31:31.488Z,99506.75
2018-12-20T17:34:01.869Z,99509.36
2018-12-20T17:36:31.972Z,99511.63
2018-12-20T17:39:01.873Z,99510.72
2018-12-20T17:41:31.834Z,99518.63
2018-12-20T17:44:01.815Z,99520.39
2018-12-20T17:46:31.756Z,99521.70
2018-12-20T17:49:01.881Z,99517.26
2018-12-20T17:51:31.930Z,99509.75
2018-12-20T17:54:01.941Z,99517.67
2018-12-20T17:56:33.817Z,99517.73
2018-12-20T17:59:03.935Z,99523.39
2018-12-20T18:01:33.928Z,99524.70
2018-12-20T18:04:04.051Z,99520.28
2018-12-20T18:06:34.038Z,99516.34
2018-12-20T18:09:05.745Z,99522.10
2018-12-20T18:14:24.290Z,99522.52
2018-12-20T18:16:54.398Z,99518.97
2018-12-20T18:19:24.445Z,99518.52
2018-12-20T18:21:54.428Z,99518.97
2018-12-20T18:24:24.422Z,99516.34
2018-12-20T18:26:54.475Z,99521.23
2018-12-20T18:29:24.493Z,99519.05
2018-12-20T18:31:57.559Z,99520.81
2018-12-20T18:34:27.886Z,99516.84
2018-12-20T18:36:57.975Z,99521.16
2018-12-20T18:39:27.982Z,99523.79
2018-12-20T18:41:58.034Z,99524.20
2018-12-20T18:44:28.083Z,99524.66
2018-12-20T18:46:59.134Z,99515.02
2018-12-20T18:49:29.852Z,99522.05
2018-12-20T18:52:04.141Z,99520.31
2018-12-20T18:54:34.109Z,99517.21
2018-12-20T18:57:04.254Z,99512.41
2018-12-20T18:59:34.369Z,99514.94
2018-12-20T19:02:04.648Z,99516.31
2018-12-20T19:04:35.728Z,99510.21
2018-12-20T19:07:05.763Z,99510.23
2018-12-20T19:09:35.789Z,99511.69
2018-12-20T19:15:21.684Z,99546.42
2018-12-20T19:17:51.457Z,99548.86
2018-12-20T19:20:24.326Z,99556.16
2018-12-20T19:22:54.083Z,99551.77
2018-12-20T19:28:04.771Z,99517.39
2018-12-20T19:30:34.757Z,99523.09
2018-12-20T19:33:05.060Z,99524.52
2018-12-20T19:35:35.027Z,99536.41
2018-12-20T19:38:05.096Z,99533.91
2018-12-20T19:40:45.813Z,99531.73
2018-12-20T19:43:25.771Z,99528.31
2018-12-20T19:46:31.473Z,99529.39
2018-12-20T19:49:01.724Z,99523.50
2018-12-20T19:51:35.914Z,99518.42
2018-12-20T19:54:06.323Z,99530.70
2018-12-20T19:56:37.063Z,99533.74
2018-12-20T19:59:10.342Z,99529.88
2018-12-20T20:01:45.303Z,99531.39
2018-12-20T20:04:16.255Z,99527.27
2018-12-20T20:06:48.135Z,99526.70
2018-12-20T20:09:18.431Z,99531.02
2018-12-20T20:11:48.455Z,99531.17
2018-12-20T20:14:19.281Z,99530.42
2018-12-20T20:16:53.353Z,99536.45
2018-12-20T20:19:27.569Z,99530.83
2018-12-20T20:21:57.824Z,99531.74
2018-12-20T20:24:29.070Z,99526.55
2018-12-20T20:27:06.100Z,99529.75
2018-12-20T20:29:36.484Z,99532.70
2018-12-20T20:32:07.814Z,99524.08
2018-12-20T20:34:41.173Z,99527.25
2018-12-20T20:37:11.314Z,99532.16
2018-12-20T20:39:43.650Z,99534.17
2018-12-20T20:42:14.995Z,99530.89
2018-12-20T20:44:49.270Z,99530.47
2018-12-20T20:47:27.070Z,99524.77
2018-12-20T20:50:01.006Z,99531.31
2018-12-20T20:52:31.636Z,99531.33
2018-12-20T20:55:02.450Z,99531.42
2018-12-20T20:57:33.680Z,99525.44
2018-12-20T21:00:04.003Z,99528.04
2018-12-20T21:02:37.979Z,99530.61
2018-12-20T21:05:13.014Z,99533.58
2018-12-20T21:07:43.197Z,99535.70
2018-12-20T21:10:13.734Z,99541.02
2018-12-20T21:12:44.202Z,99531.86
2018-12-20T21:15:15.862Z,99534.16
2018-12-20T21:17:45.929Z,99531.97
2018-12-20T21:20:16.008Z,99532.36
2018-12-20T21:22:46.024Z,99536.39
2018-12-20T21:25:16.176Z,99534.60
2018-12-20T21:27:46.491Z,99529.75
2018-12-20T21:30:16.835Z,99533.31
2018-12-20T21:32:47.276Z,99534.71
2018-12-20T21:35:17.199Z,99529.89
2018-12-20T21:37:47.443Z,99533.81
2018-12-20T21:40:18.733Z,99539.91
2018-12-20T21:42:48.911Z,99537.34
2018-12-20T21:45:18.844Z,99540.89
2018-12-20T21:47:51.910Z,99546.09
2018-12-20T21:50:22.143Z,99540.89
2018-12-20T21:52:52.325Z,99538.78
2018-12-20T21:55:22.737Z,99539.17
2018-12-20T21:57:52.709Z,99537.02
2018-12-20T22:00:22.875Z,99537.86
2018-12-20T22:02:54.490Z,99544.44
2018-12-20T22:05:24.463Z,99544.97
2018-12-20T22:07:54.443Z,99537.10
2018-12-20T22:10:24.375Z,99538.84
2018-12-20T22:12:54.426Z,99540.66
2018-12-20T22:15:24.626Z,99542.78
2018-12-20T22:17:55.529Z,99547.27
2018-12-20T22:20:25.500Z,99535.89
2018-12-20T22:22:55.849Z,99532.81
2018-12-20T22:25:25.934Z,99533.73
2018-12-20T22:27:56.192Z,99538.55
2018-12-20T22:30:27.385Z,99533.75
2018-12-20T22:33:05.316Z,99534.15
2018-12-20T22:35:40.289Z,99540.12
2018-12-20T22:38:12.292Z,99537.02
2018-12-20T22:41:59.781Z,99534.63
2018-12-20T22:44:29.825Z,99526.34
2018-12-20T22:46:59.804Z,99528.09
2018-12-20T22:49:29.790Z,99528.97
2018-12-20T22:51:59.892Z,99528.66
2018-12-20T22:54:32.919Z,99524.70
2018-12-20T22:57:03.090Z,99525.57
2018-12-20T22:59:32.982Z,99530.44
2018-12-20T23:02:02.986Z,99528.70
2018-12-20T23:04:33.060Z,99530.20
2018-12-20T23:07:03.060Z,99528.01
2018-12-20T23:09:33.049Z,99524.58
2018-12-20T23:12:03.049Z,99524.53
2018-12-20T23:14:33.138Z,99520.98
2018-12-20T23:17:03.197Z,99521.37
2018-12-20T23:19:33.142Z,99523.14
2018-12-20T23:22:03.101Z,99522.34
2018-12-20T23:24:33.107Z,99516.64
2018-12-20T23:27:03.059Z,99520.56
2018-12-20T23:29:33.143Z,99517.95
2018-12-20T23:32:03.082Z,99520.09
2018-12-20T23:34:33.088Z,99517.88
2018-12-20T23:37:03.020Z,99522.74
2018-12-20T23:39:36.068Z,99516.91
2018-12-20T23:42:05.958Z,99518.35
2018-12-20T23:44:35.980Z,99518.73
2018-12-20T23:47:05.890Z,99511.22
2018-12-20T23:49:35.969Z,99516.91
2018-12-20T23:52:05.975Z,99519.56
2018-12-20T23:54:36.257Z,99517.76
2018-12-20T23:57:06.160Z,99518.23
2018-12-20T23:59:36.179Z,99510.28
